Time;durP1;ratioP1;P1;durP2;ratioP2;P2;SDS_P1;SDS_P2;PMS_P1;PMS_P2;Temp;Humidity;BMP_temperature;BMP_pressure;BME280_temperature;BME280_humidity;BME280_pressure;Samples;Min_cycle;Max_cycle;Signal;HPM_P1;HPM_P2
2023/05/02 00:00:44;;;;;;;6.57;4.33;;;15.10;99.90;;;15.56;57.36;101428.88;6079971;22;97416;-41
2023/05/02 00:03:11;;;;;;;3.30;2.40;;;15.10;99.90;;;15.61;57.03;101426.91;6080375;22;99179;-45
2023/05/02 00:05:37;;;;;;;1.83;1.20;;;15.10;99.90;;;15.65;56.59;101428.50;6073896;22;97000;-42
2023/05/02 00:08:03;;;;;;;7.97;4.53;;;15.20;99.90;;;15.68;56.79;101429.22;6083354;22;97064;-48
2023/05/02 00:10:29;;;;;;;6.93;4.53;;;15.20;99.90;;;15.64;57.42;101427.66;6082745;22;96957;-41
2023/05/02 00:12:55;;;;;;;6.27;4.43;;;15.20;99.90;;;15.60;57.45;101436.69;6079012;22;97354;-40
2023/05/02 00:15:21;;;;;;;5.93;3.67;;;15.10;99.90;;;15.57;57.08;101436.78;6081661;22;98358;-42
2023/05/02 00:17:47;;;;;;;6.40;4.30;;;15.00;99.90;;;15.57;57.20;101436.78;6052538;22;97473;-40
2023/05/02 00:20:13;;;;;;;5.23;3.10;;;15.00;99.90;;;15.59;57.09;101450.91;6083170;22;97153;-41
2023/05/02 00:22:39;;;;;;;7.07;4.47;;;15.00;99.90;;;15.59;56.95;101442.03;6080143;22;106873;-42
2023/05/02 00:25:06;;;;;;;1.70;1.60;;;15.00;99.90;;;15.59;56.86;101445.59;6091995;23;97249;-42
2023/05/02 00:27:32;;;;;;;6.30;4.23;;;15.00;99.90;;;15.60;56.89;101449.97;6096894;22;96930;-41
2023/05/02 00:29:59;;;;;;;6.57;4.03;;;15.10;99.90;;;15.60;56.79;101439.34;6066744;23;97512;-45
2023/05/02 00:32:25;;;;;;;4.73;2.90;;;15.10;99.90;;;15.63;56.77;101447.22;6096670;23;98791;-41
2023/05/02 00:34:51;;;;;;;7.60;4.70;;;15.10;99.90;;;15.61;56.43;101449.03;6094701;22;96624;-42
2023/05/02 00:37:17;;;;;;;6.13;3.87;;;15.10;99.90;;;15.59;56.71;101445.59;6097516;23;97087;-41
2023/05/02 00:39:43;;;;;;;6.83;4.03;;;15.10;99.90;;;15.61;56.84;101461.47;6077693;22;96561;-40
2023/05/02 00:42:09;;;;;;;1.90;1.50;;;15.00;99.90;;;15.63;56.55;101460.50;6095583;22;97136;-41
2023/05/02 00:44:35;;;;;;;5.37;3.70;;;15.10;99.90;;;15.64;56.76;101464.88;6095688;23;103137;-41
2023/05/02 00:47:01;;;;;;;4.47;2.83;;;15.20;99.90;;;15.63;56.40;101468.47;6094295;22;111044;-41
2023/05/02 00:49:27;;;;;;;4.23;2.40;;;15.10;99.90;;;15.63;56.68;101467.63;6098102;22;96549;-40
2023/05/02 00:51:54;;;;;;;14.63;5.87;;;15.10;99.90;;;15.68;56.28;101471.78;6068072;22;96932;-41
2023/05/02 00:54:20;;;;;;;10.90;5.83;;;15.30;99.90;;;15.73;56.11;101469.78;6097611;22;98898;-41
2023/05/02 00:56:46;;;;;;;10.30;5.77;;;15.30;99.90;;;15.76;56.63;101479.41;6094013;22;97170;-42
2023/05/02 00:59:13;;;;;;;4.27;2.63;;;15.40;99.90;;;15.81;56.46;101473.91;6099618;22;96707;-40
2023/05/02 01:02:09;;;;;;;13.20;6.60;;;15.40;99.90;;;15.87;55.97;101476.28;6094857;23;97879;-42
2023/05/02 01:05:00;;;;;;;10.80;5.80;;;15.60;99.90;;;15.90;55.80;101481.47;6070629;23;97026;-42
2023/05/02 01:07:46;;;;;;;13.20;5.93;;;15.70;99.90;;;15.83;56.67;101486.22;6092414;22;97087;-41
2023/05/02 01:10:41;;;;;;;11.03;6.07;;;15.60;99.90;;;15.74;57.22;101487.47;6093785;22;97449;-43
2023/05/02 01:13:15;;;;;;;13.77;6.93;;;15.50;99.90;;;15.69;57.22;101484.16;6066756;23;102422;-41
2023/05/02 01:15:44;;;;;;;15.60;7.27;;;15.50;99.90;;;15.65;57.42;101487.03;6066086;23;99418;-44
2023/05/02 01:18:12;;;;;;;12.20;6.80;;;15.40;99.90;;;15.57;57.11;101489.97;6071227;23;97206;-40
2023/05/02 01:20:43;;;;;;;16.23;6.50;;;15.40;99.90;;;15.56;57.71;101488.25;6091243;22;97537;-43
2023/05/02 01:23:40;;;;;;;14.10;6.80;;;15.40;99.90;;;15.54;57.61;101490.09;6096154;22;97541;-43
2023/05/02 01:26:17;;;;;;;11.07;6.37;;;15.40;99.90;;;15.47;58.04;101499.25;6094336;23;102980;-43
2023/05/02 01:28:59;;;;;;;13.67;7.53;;;15.30;99.90;;;15.42;57.99;101491.50;6094448;22;97095;-43
2023/05/02 01:31:47;;;;;;;13.30;6.83;;;15.30;99.90;;;15.40;57.82;101495.16;6065507;23;96869;-41
2023/05/02 01:34:12;;;;;;;11.53;5.77;;;15.20;99.90;;;15.40;58.04;101503.13;6063862;23;100736;-42
2023/05/02 01:36:45;;;;;;;17.57;7.20;;;15.30;99.90;;;15.30;58.55;101512.41;6064697;22;100949;-40
2023/05/02 01:39:19;;;;;;;12.23;6.33;;;15.20;99.90;;;15.25;58.66;101515.25;6069345;22;97139;-43
2023/05/02 01:41:50;;;;;;;15.83;7.93;;;15.10;99.90;;;15.21;58.95;101508.34;6037879;22;96901;-41
2023/05/02 01:44:18;;;;;;;13.27;7.27;;;15.00;99.90;;;15.16;58.99;101513.84;6067338;22;97532;-42
2023/05/02 01:46:45;;;;;;;11.63;6.77;;;15.00;99.90;;;15.20;58.64;101508.41;6065065;23;97645;-43
2023/05/02 01:49:11;;;;;;;15.47;7.03;;;15.00;99.90;;;15.13;59.13;101521.09;6067025;22;101264;-44
2023/05/02 01:51:43;;;;;;;15.67;7.83;;;15.00;99.90;;;15.13;58.84;101532.56;6064138;22;97372;-52
2023/05/02 01:54:12;;;;;;;14.63;6.43;;;14.90;99.90;;;15.08;58.96;101528.38;6068386;22;97358;-41
2023/05/02 01:56:38;;;;;;;13.23;6.83;;;14.90;99.90;;;15.09;58.72;101520.34;6063899;23;97100;-43
2023/05/02 01:59:08;;;;;;;13.17;7.13;;;15.00;99.90;;;15.05;59.17;101529.38;6067594;22;97082;-42
2023/05/02 02:01:39;;;;;;;17.93;7.10;;;14.90;99.90;;;15.04;59.33;101532.06;6090352;22;97360;-42
2023/05/02 02:04:08;;;;;;;18.73;6.97;;;14.90;99.90;;;15.01;59.30;101542.81;6062911;23;100455;-41
2023/05/02 02:06:34;;;;;;;15.10;7.03;;;14.80;99.90;;;15.02;59.19;101540.09;6064472;23;97113;-40
2023/05/02 02:09:02;;;;;;;11.37;6.20;;;14.80;99.90;;;15.02;59.41;101542.75;6064311;22;108898;-41
2023/05/02 02:12:10;;;;;;;15.83;6.37;;;14.80;99.90;;;14.95;59.83;101543.94;6065558;23;97077;-40
2023/05/02 02:14:39;;;;;;;15.40;7.30;;;14.80;99.90;;;14.92;60.04;101552.06;6045379;22;102198;-40
2023/05/02 02:17:14;;;;;;;14.93;7.00;;;14.70;99.90;;;14.84;60.84;101556.78;6062816;22;102278;-41
2023/05/02 02:19:41;;;;;;;13.90;6.20;;;14.70;99.90;;;14.83;60.28;101560.38;6063176;23;97312;-42
2023/05/02 02:22:08;;;;;;;15.00;6.80;;;14.70;99.90;;;14.78;60.82;101562.34;6066323;23;97386;-41
2023/05/02 02:24:36;;;;;;;15.87;7.53;;;14.60;99.90;;;14.70;60.87;101564.41;6065610;23;96879;-42
2023/05/02 02:27:02;;;;;;;11.80;6.67;;;14.60;99.90;;;14.70;61.52;101564.41;6064064;23;101081;-41
2023/05/02 02:29:28;;;;;;;15.53;6.87;;;14.60;99.90;;;14.64;61.41;101569.97;6066822;22;97050;-40
2023/05/02 02:31:54;;;;;;;13.93;6.83;;;14.50;99.90;;;14.68;61.40;101560.97;6081071;22;105937;-50
2023/05/02 02:34:21;;;;;;;14.27;6.83;;;14.60;99.90;;;14.69;61.26;101575.97;6070595;23;97100;-47
2023/05/02 02:36:57;;;;;;;14.83;6.73;;;14.50;99.90;;;14.68;61.02;101567.13;6092963;22;98899;-45
2023/05/02 02:39:59;;;;;;;14.23;6.40;;;14.60;99.90;;;14.79;60.04;101558.75;6094436;22;97044;-49
2023/05/02 02:43:04;;;;;;;13.67;6.93;;;14.60;99.90;;;14.80;60.82;101565.81;6038491;23;97036;-48
2023/05/02 02:46:06;;;;;;;17.30;7.77;;;14.60;99.90;;;14.79;60.60;101570.25;6068020;23;104274;-50
2023/05/02 02:49:29;;;;;;;16.07;8.23;;;14.60;99.90;;;14.91;59.59;101576.88;6069107;23;101302;-48
2023/05/02 02:52:07;;;;;;;11.40;6.27;;;14.70;99.90;;;14.93;59.79;101575.03;6088933;22;96947;-49
2023/05/02 02:54:49;;;;;;;13.33;6.07;;;14.70;99.90;;;14.96;60.51;101577.56;6096688;23;97053;-48
2023/05/02 02:57:29;;;;;;;18.70;8.20;;;14.70;99.90;;;15.01;59.49;101586.22;6068416;23;101803;-47
2023/05/02 03:00:14;;;;;;;15.27;6.50;;;14.60;99.90;;;15.01;59.90;101586.22;6044285;23;97315;-48
2023/05/02 03:02:42;;;;;;;15.77;7.20;;;14.70;99.90;;;15.10;58.92;101579.69;6093250;23;97084;-44
2023/05/02 03:05:10;;;;;;;12.00;6.37;;;14.80;99.90;;;15.11;59.59;101587.59;6070871;23;96971;-49
2023/05/02 03:07:35;;;;;;;17.70;6.03;;;14.80;99.90;;;15.22;58.23;101591.63;6072029;23;96961;-45
2023/05/02 03:10:05;;;;;;;15.47;7.00;;;14.90;99.90;;;15.23;59.07;101598.66;6068006;23;100719;-48
2023/05/02 03:12:31;;;;;;;15.20;6.40;;;15.00;99.90;;;15.22;58.71;101594.28;6097828;22;103788;-45
2023/05/02 03:15:49;;;;;;;16.77;6.83;;;14.90;99.90;;;15.36;58.29;101591.91;6095139;22;97543;-50
2023/05/02 03:18:15;;;;;;;14.07;5.70;;;15.10;99.90;;;15.36;57.97;101598.09;6067776;23;101798;-48
2023/05/02 03:20:40;;;;;;;12.33;6.37;;;15.20;99.90;;;15.41;57.50;101595.25;6094300;22;97628;-47
2023/05/02 03:23:06;;;;;;;13.47;6.53;;;15.10;99.90;;;15.46;57.45;101609.19;6097480;22;99426;-43
2023/05/02 03:25:32;;;;;;;14.47;5.97;;;15.20;99.90;;;15.50;57.62;101604.66;6096812;22;97503;-47
2023/05/02 03:27:58;;;;;;;16.50;7.13;;;15.30;99.90;;;15.56;57.20;101607.03;6094811;22;96898;-46
2023/05/02 03:30:24;;;;;;;13.87;7.57;;;15.30;99.90;;;15.51;57.43;101601.06;6097968;22;99435;-42
2023/05/02 03:32:50;;;;;;;15.30;7.23;;;15.20;99.90;;;15.51;57.75;101601.94;6094865;22;98027;-44
2023/05/02 03:35:16;;;;;;;14.93;6.70;;;15.20;99.90;;;15.51;58.02;101607.25;6096842;22;97169;-46
2023/05/02 03:37:42;;;;;;;10.73;5.60;;;15.20;99.90;;;15.47;57.51;101608.28;6094219;22;97445;-48
2023/05/02 03:40:08;;;;;;;14.27;6.10;;;15.20;99.90;;;15.48;58.19;101607.38;6095763;23;121179;-46
2023/05/02 03:42:40;;;;;;;13.23;6.30;;;15.10;99.90;;;15.46;57.87;101617.19;6095992;23;97034;-43
2023/05/02 03:45:09;;;;;;;19.40;7.07;;;15.10;99.90;;;15.50;57.30;101621.47;6093317;23;97663;-49
2023/05/02 03:47:35;;;;;;;14.13;6.40;;;15.20;99.90;;;15.54;57.38;101616.88;6097578;23;97153;-45
2023/05/02 03:50:02;;;;;;;14.93;6.77;;;15.20;99.90;;;15.55;57.48;101613.28;6094208;22;97325;-48
2023/05/02 03:52:28;;;;;;;15.43;6.43;;;15.20;99.90;;;15.56;57.57;101621.22;6097646;23;97203;-47
2023/05/02 03:54:53;;;;;;;11.30;5.63;;;15.20;99.90;;;15.57;57.25;101614.94;6092060;22;115460;-42
2023/05/02 03:57:20;;;;;;;12.23;5.47;;;15.20;99.90;;;15.59;57.31;101618.44;6096948;22;97235;-45
2023/05/02 03:59:46;;;;;;;17.17;7.27;;;15.20;99.90;;;15.59;57.50;101620.22;6091799;22;97268;-49
2023/05/02 04:02:12;;;;;;;16.00;7.17;;;15.20;99.90;;;15.59;57.80;101621.09;6098397;22;96925;-44
2023/05/02 04:04:39;;;;;;;11.23;5.33;;;15.20;99.90;;;15.60;57.15;101628.16;6092549;22;97425;-50
2023/05/02 04:07:06;;;;;;;5.40;3.17;;;15.20;99.90;;;15.65;56.96;101626.19;6098877;22;97085;-45
2023/05/02 04:09:33;;;;;;;15.47;6.90;;;15.30;99.90;;;15.67;57.39;101624.31;6097108;22;97121;-49
2023/05/02 04:11:59;;;;;;;17.57;7.03;;;15.30;99.90;;;15.66;57.51;101633.22;6094651;22;97074;-44
2023/05/02 04:14:24;;;;;;;17.53;6.33;;;15.30;99.90;;;15.61;59.83;101639.66;6097680;23;97245;-42
2023/05/02 04:16:53;;;;;;;13.77;7.40;;;15.20;99.90;;;15.52;59.60;101635.56;6092701;22;97473;-47
2023/05/02 04:19:19;;;;;;;11.70;6.27;;;15.10;99.90;;;15.45;59.16;101639.38;6096783;22;114642;-46
2023/05/02 04:21:45;;;;;;;12.93;7.00;;;15.00;99.90;;;15.48;58.85;101644.59;6092926;22;108819;-44
2023/05/02 04:24:12;;;;;;;15.73;6.80;;;15.00;99.90;;;15.47;57.88;101637.53;6098053;22;97423;-47
2023/05/02 04:26:38;;;;;;;16.30;6.67;;;15.00;99.90;;;15.48;58.98;101641.94;6094506;22;97205;-44
2023/05/02 04:29:03;;;;;;;12.27;6.47;;;15.00;99.90;;;15.46;58.62;101641.09;6096995;22;97120;-44
2023/05/02 04:31:32;;;;;;;13.83;5.93;;;15.00;99.90;;;15.48;57.44;101644.59;6095223;22;97253;-46
2023/05/02 04:33:58;;;;;;;14.83;7.20;;;15.00;99.90;;;15.51;57.42;101649.78;6094522;22;97347;-48
2023/05/02 04:36:27;;;;;;;13.23;6.83;;;15.10;99.90;;;15.55;57.63;101656.72;6096205;22;102578;-47
2023/05/02 04:38:54;;;;;;;17.20;6.73;;;15.20;99.90;;;15.55;58.85;101662.03;6067087;22;97078;-53
2023/05/02 04:41:20;;;;;;;15.60;6.43;;;15.20;99.90;;;15.57;57.29;101665.47;6090110;22;107388;-46
2023/05/02 04:43:46;;;;;;;14.00;6.60;;;15.20;99.90;;;15.59;57.50;101657.44;6092621;23;97116;-48
2023/05/02 04:46:12;;;;;;;17.43;6.70;;;15.20;99.90;;;15.57;57.80;101662.81;6096553;23;121872;-47
2023/05/02 04:48:40;;;;;;;13.33;5.77;;;15.20;99.90;;;15.61;57.25;101667.13;6092767;22;109495;-45
2023/05/02 04:51:10;;;;;;;14.70;5.93;;;15.20;99.90;;;15.65;57.27;101666.09;6094918;23;97218;-47
2023/05/02 04:53:36;;;;;;;14.23;6.03;;;15.30;99.90;;;15.67;56.74;101669.53;6098142;22;97026;-43
2023/05/02 04:56:02;;;;;;;16.97;7.10;;;15.30;99.90;;;15.68;57.44;101681.91;6093106;22;101629;-45
2023/05/02 04:58:28;;;;;;;11.83;6.00;;;15.30;99.90;;;15.64;58.14;101688.28;6097183;22;97623;-48
2023/05/02 05:00:54;;;;;;;13.20;6.10;;;15.30;99.90;;;15.63;57.53;101691.88;6093334;22;96955;-49
2023/05/02 05:03:20;;;;;;;9.60;4.50;;;15.30;99.90;;;15.63;57.46;101691.88;6072005;23;97241;-48
2023/05/02 05:05:46;;;;;;;12.50;5.43;;;15.40;99.90;;;15.66;57.94;101696.22;6093111;22;98821;-47
2023/05/02 05:08:12;;;;;;;13.23;5.30;;;15.40;99.90;;;15.66;57.82;101702.38;6098810;22;97828;-43
2023/05/02 05:10:39;;;;;;;10.30;4.97;;;15.50;99.90;;;15.56;59.40;101702.78;6092210;22;100902;-45
2023/05/02 05:13:05;;;;;;;9.83;5.17;;;15.30;99.90;;;15.60;59.30;101709.72;6073098;23;97056;-46
2023/05/02 05:15:31;;;;;;;13.33;5.57;;;15.30;99.90;;;15.52;59.47;101704.69;6096744;22;97986;-46
2023/05/02 05:17:57;;;;;;;17.53;5.90;;;15.30;99.90;;;15.49;60.16;101712.81;6094097;22;111918;-45
2023/05/02 05:20:23;;;;;;;11.37;5.37;;;15.30;99.90;;;15.43;59.54;101713.03;6100483;22;96932;-43
2023/05/02 05:22:49;;;;;;;16.77;5.73;;;15.20;99.90;;;15.35;60.85;101723.13;6098719;22;114159;-48
2023/05/02 05:25:15;;;;;;;9.30;4.80;;;15.10;99.90;;;15.33;60.75;101720.47;6099250;22;97347;-48
2023/05/02 05:27:41;;;;;;;12.73;5.30;;;15.10;99.90;;;15.28;61.20;101717.16;6095680;22;97760;-44
2023/05/02 05:30:10;;;;;;;9.87;4.57;;;15.10;99.90;;;15.22;60.84;101727.16;6097769;22;96784;-42
2023/05/02 05:32:36;;;;;;;12.17;5.17;;;15.00;99.90;;;15.26;59.93;101728.78;6100228;23;96883;-45
2023/05/02 05:35:03;;;;;;;12.37;4.63;;;15.10;99.90;;;15.26;60.50;101728.78;6069055;23;99195;-44
2023/05/02 05:37:29;;;;;;;9.40;4.60;;;15.10;99.90;;;15.26;60.72;101734.09;6100373;22;97377;-41
2023/05/02 05:39:55;;;;;;;11.20;4.87;;;15.10;99.90;;;15.28;60.10;101732.22;6073214;22;97390;-45
2023/05/02 05:42:20;;;;;;;7.17;3.60;;;15.10;99.90;;;15.23;61.21;101739.53;6103263;22;116263;-48
2023/05/02 05:44:46;;;;;;;6.83;3.73;;;15.10;99.90;;;15.23;60.66;101755.47;6097262;23;98613;-47
2023/05/02 05:47:12;;;;;;;8.97;4.10;;;15.10;99.90;;;15.24;61.57;101743.91;6100832;22;99020;-43
2023/05/02 05:49:38;;;;;;;9.03;3.93;;;15.10;99.90;;;15.17;61.16;101752.09;6072139;22;97219;-49
2023/05/02 05:52:03;;;;;;;11.57;3.87;;;15.00;99.90;;;15.24;60.54;101752.75;6103330;23;97047;-44
2023/05/02 05:54:29;;;;;;;11.10;4.53;;;15.10;99.90;;;15.23;60.54;101760.78;6099929;22;109158;-45
2023/05/02 05:56:55;;;;;;;10.63;3.50;;;15.10;99.90;;;15.31;60.39;101753.38;6080264;22;110391;-44
2023/05/02 05:59:21;;;;;;;13.23;4.90;;;15.10;99.90;;;15.31;59.43;101759.56;6098719;22;102943;-43
2023/05/02 06:01:46;;;;;;;8.43;4.00;;;15.10;99.90;;;15.32;59.86;101761.28;6093935;23;96998;-47
2023/05/02 06:04:12;;;;;;;7.30;3.70;;;15.10;99.90;;;15.29;60.92;101766.72;6099467;22;96997;-47
2023/05/02 06:06:38;;;;;;;8.80;4.27;;;15.20;99.90;;;15.13;62.25;101771.75;6069227;23;107239;-47
2023/05/02 06:09:04;;;;;;;8.00;3.40;;;15.00;99.90;;;14.97;62.81;101769.72;6104718;22;97004;-43
2023/05/02 06:11:30;;;;;;;9.67;4.53;;;14.90;99.90;;;14.85;63.12;101777.19;6104824;23;97316;-42
2023/05/02 06:13:56;;;;;;;9.93;3.80;;;14.80;99.90;;;14.82;63.75;101776.44;6101882;22;97849;-42
2023/05/02 06:16:22;;;;;;;9.13;3.83;;;14.80;99.90;;;14.78;63.88;101781.00;6100323;22;104766;-54
2023/05/02 06:18:51;;;;;;;9.43;3.97;;;14.70;99.90;;;14.79;63.27;101776.56;6100773;22;97100;-46
2023/05/02 06:21:17;;;;;;;10.43;4.10;;;14.70;99.90;;;14.77;63.59;101779.28;6103370;22;101121;-46
2023/05/02 06:23:43;;;;;;;14.03;4.57;;;14.80;99.90;;;14.76;63.59;101788.16;6094942;22;97445;-46
2023/05/02 06:26:09;;;;;;;11.90;4.13;;;14.70;99.90;;;14.73;64.81;101787.38;6096428;22;97824;-44
2023/05/02 06:28:35;;;;;;;8.57;3.40;;;14.60;99.90;;;14.82;62.95;101792.38;6096504;23;97419;-45
2023/05/02 06:31:04;;;;;;;9.93;4.43;;;14.70;99.90;;;14.80;64.18;101800.41;6092890;22;97299;-49
2023/05/02 06:33:31;;;;;;;7.03;3.73;;;14.70;99.90;;;14.80;63.53;101799.53;6084124;22;99722;-46
2023/05/02 06:35:58;;;;;;;8.83;3.23;;;14.70;99.90;;;14.85;61.54;101802.91;6091408;22;97592;-45
2023/05/02 06:38:24;;;;;;;11.13;4.20;;;14.70;99.90;;;14.85;63.11;101811.72;6100773;22;97009;-46
2023/05/02 06:40:51;;;;;;;9.63;3.80;;;14.80;99.90;;;14.87;63.56;101814.31;6094007;22;97323;-45
2023/05/02 06:43:17;;;;;;;7.27;3.57;;;14.70;99.90;;;14.79;64.00;101813.75;6098785;22;97087;-45
2023/05/02 06:45:43;;;;;;;10.07;3.93;;;14.60;99.90;;;14.87;63.69;101822.31;6094691;22;97049;-48
2023/05/02 06:48:10;;;;;;;11.57;4.83;;;14.70;99.90;;;14.77;64.83;101828.88;6095751;23;97167;-46
2023/05/02 06:50:36;;;;;;;10.70;4.00;;;14.60;99.90;;;14.78;64.63;101828.81;6070378;23;96989;-46
2023/05/02 06:53:04;;;;;;;9.77;4.00;;;14.60;99.90;;;14.80;63.43;101834.94;6094257;22;96727;-48
2023/05/02 06:55:30;;;;;;;8.53;3.67;;;14.60;99.90;;;14.81;64.89;101835.81;6096119;23;97524;-47
2023/05/02 06:57:56;;;;;;;5.27;3.17;;;14.60;99.90;;;14.83;62.95;101841.94;6097416;22;97388;-44
2023/05/02 07:00:22;;;;;;;6.17;2.97;;;14.60;99.90;;;14.82;63.92;101848.16;6103075;22;106252;-45
2023/05/02 07:02:48;;;;;;;7.33;3.50;;;14.70;99.90;;;14.91;61.16;101845.22;6096260;22;97767;-40
2023/05/02 07:05:15;;;;;;;13.90;4.23;;;14.70;99.90;;;14.97;62.24;101844.97;6094979;23;122735;-49
2023/05/02 07:07:42;;;;;;;8.20;3.43;;;14.80;99.90;;;15.03;63.33;101847.41;6063909;22;97263;-49
2023/05/02 07:10:09;;;;;;;3.90;2.40;;;14.80;99.90;;;15.15;59.68;101854.94;6084487;23;97214;-49
2023/05/02 07:12:34;;;;;;;5.47;3.53;;;14.90;99.90;;;15.03;63.00;101860.69;6095154;22;98738;-50
2023/05/02 07:15:00;;;;;;;8.43;3.60;;;14.90;99.90;;;15.03;62.19;101866.00;6093433;22;97059;-43
2023/05/02 07:17:26;;;;;;;6.57;3.10;;;14.80;99.90;;;15.07;61.19;101872.97;6095245;23;97024;-46
2023/05/02 07:19:53;;;;;;;6.73;2.87;;;14.90;99.90;;;15.02;61.88;101876.69;6094402;22;98935;-46
2023/05/02 07:22:20;;;;;;;6.30;2.93;;;14.80;99.90;;;14.99;61.26;101880.31;6096869;23;97942;-49
2023/05/02 07:24:46;;;;;;;4.50;2.50;;;14.80;99.90;;;14.98;61.04;101883.91;6091325;22;97390;-50
2023/05/02 07:27:12;;;;;;;7.63;2.10;;;14.70;99.90;;;15.12;60.23;101884.28;6097405;23;97010;-47
2023/05/02 07:29:38;;;;;;;6.73;2.60;;;14.90;99.90;;;15.13;60.10;101883.38;6092033;22;111091;-50
2023/05/02 07:32:05;;;;;;;4.93;1.97;;;14.90;99.90;;;15.32;59.05;101885.38;6097470;22;98453;-46
2023/05/02 07:34:31;;;;;;;4.37;2.27;;;15.10;99.90;;;15.42;58.91;101895.63;6094997;23;97317;-48
2023/05/02 07:36:58;;;;;;;5.07;2.13;;;15.20;99.90;;;15.21;60.83;101890.22;6091692;22;101068;-50
2023/05/02 07:39:24;;;;;;;3.87;1.80;;;15.00;99.90;;;15.33;59.27;101889.75;6099378;23;97075;-47
2023/05/02 07:41:54;;;;;;;5.43;2.00;;;15.00;99.90;;;15.45;58.81;101897.28;6092572;23;99536;-50
2023/05/02 07:44:21;;;;;;;3.57;2.07;;;15.20;99.90;;;15.52;58.18;101900.63;6096583;23;97109;-48
2023/05/02 07:46:46;;;;;;;3.00;1.50;;;15.30;99.90;;;15.51;58.73;101899.75;6093124;22;107976;-45
2023/05/02 07:49:13;;;;;;;2.87;1.53;;;15.30;99.90;;;15.50;59.26;101908.66;6096091;22;112960;-42
2023/05/02 07:51:39;;;;;;;2.60;1.50;;;15.30;99.90;;;15.56;58.36;101908.41;6093529;22;97482;-48
2023/05/02 07:54:15;;;;;;;2.50;1.17;;;15.40;99.90;;;15.61;57.89;101916.25;6095987;23;113876;-43
2023/05/02 07:56:43;;;;;;;3.03;2.13;;;15.40;99.90;;;15.68;57.67;101915.97;6092502;22;97832;-52
2023/05/02 07:59:08;;;;;;;2.83;1.80;;;15.40;99.90;;;15.79;57.28;101925.38;6097660;23;96671;-46
2023/05/02 08:01:35;;;;;;;4.07;1.60;;;15.60;99.90;;;15.88;56.93;101920.53;6094643;22;99604;-44
2023/05/02 08:04:00;;;;;;;4.17;1.80;;;15.70;99.90;;;15.86;57.38;101921.53;6091927;22;97230;-47
2023/05/02 08:06:27;;;;;;;6.73;2.97;;;15.60;99.90;;;15.92;57.09;101922.19;6096100;22;106091;-47
2023/05/02 08:08:53;;;;;;;4.10;2.60;;;15.70;99.90;;;15.96;57.84;101928.25;6092723;22;97175;-49
2023/05/02 08:11:21;;;;;;;2.77;2.00;;;15.80;99.90;;;15.78;60.15;101929.81;6094647;23;97532;-48
2023/05/02 08:13:47;;;;;;;4.60;2.60;;;15.60;99.90;;;15.67;59.99;101927.56;6092843;22;97642;-46
2023/05/02 08:16:13;;;;;;;4.50;2.07;;;15.40;99.90;;;15.55;60.34;101933.28;6071697;23;97584;-49
2023/05/02 08:18:40;;;;;;;6.93;2.50;;;15.30;99.90;;;15.44;59.68;101925.69;6091923;22;102254;-52
2023/05/02 08:21:05;;;;;;;3.80;2.30;;;15.20;99.90;;;15.37;62.11;101925.97;6094384;22;98708;-48
2023/05/02 08:23:31;;;;;;;4.43;2.50;;;15.10;99.90;;;15.31;61.07;101931.47;6095141;22;114279;-49
2023/05/02 08:25:57;;;;;;;3.33;2.13;;;15.00;99.90;;;15.33;59.63;101937.59;6091549;22;96896;-49
2023/05/02 08:28:23;;;;;;;2.93;2.00;;;15.10;99.90;;;15.35;59.48;101938.44;6096787;22;97268;-50
2023/05/02 08:30:49;;;;;;;2.77;1.87;;;15.10;99.90;;;15.27;57.99;101941.38;6092140;22;96953;-49
2023/05/02 08:33:14;;;;;;;2.37;1.80;;;15.00;99.90;;;15.17;57.54;101948.78;6097501;22;98022;-46
2023/05/02 08:35:40;;;;;;;3.73;1.60;;;15.00;99.90;;;15.15;57.63;101942.66;6089557;22;97027;-50
2023/05/02 08:38:06;;;;;;;2.67;1.90;;;15.00;99.90;;;15.11;57.86;101946.34;6096883;22;97295;-50
2023/05/02 08:40:36;;;;;;;5.60;2.67;;;15.00;99.90;;;15.08;58.10;101954.44;6095918;22;97806;-47
2023/05/02 08:43:04;;;;;;;3.60;1.90;;;15.00;99.90;;;15.25;58.27;101960.94;6092676;22;100689;-43
2023/05/02 08:45:37;;;;;;;6.13;2.40;;;15.20;99.90;;;15.17;58.80;101964.72;6095309;22;97135;-48
2023/05/02 08:48:10;;;;;;;3.77;1.83;;;15.10;99.90;;;15.25;58.72;101968.94;6067799;23;97367;-51
2023/05/02 08:50:37;;;;;;;3.27;2.10;;;15.10;99.90;;;15.30;58.29;101986.44;6095254;22;98023;-44
2023/05/02 08:53:08;;;;;;;3.60;1.57;;;15.20;99.90;;;15.45;57.14;101982.38;6094373;22;101658;-51
2023/05/02 08:55:40;;;;;;;2.50;1.17;;;15.30;99.90;;;15.62;57.46;101987.13;6095781;22;97218;-47
2023/05/02 08:58:10;;;;;;;2.13;1.47;;;15.50;99.90;;;15.59;57.19;101982.81;6092476;22;98513;-42
2023/05/02 09:00:40;;;;;;;1.80;1.37;;;15.50;99.90;;;15.65;57.03;101985.25;6068049;23;98283;-47
2023/05/02 09:03:30;;;;;;;1.83;1.30;;;15.50;99.90;;;15.67;56.90;101991.38;6093934;22;101576;-48
2023/05/02 09:06:13;;;;;;;0.80;0.77;;;15.50;99.90;;;15.72;56.16;101989.41;6093135;22;97481;-50
2023/05/02 09:08:40;;;;;;;3.47;1.00;;;15.60;99.90;;;15.64;55.17;102002.16;6066695;23;96998;-48
2023/05/02 09:11:08;;;;;;;1.17;0.90;;;15.50;99.90;;;15.65;55.91;102003.88;6097901;22;97347;-42
2023/05/02 09:13:40;;;;;;;1.10;0.90;;;15.50;99.90;;;15.60;55.00;102011.13;6097493;22;97458;-46
2023/05/02 09:16:25;;;;;;;10.47;1.23;;;15.40;99.90;;;15.38;55.27;102011.00;6095078;22;98622;-43
2023/05/02 09:18:58;;;;;;;1.83;1.20;;;15.20;99.90;;;15.41;56.87;102020.66;6091873;22;97918;-48
2023/05/02 09:21:39;;;;;;;1.40;1.00;;;15.10;99.90;;;15.57;56.89;102021.84;6069409;23;98905;-52
2023/05/02 09:24:34;;;;;;;1.47;1.17;;;15.30;99.90;;;15.71;56.57;102019.63;6091810;22;101615;-46
2023/05/02 09:27:04;;;;;;;1.37;0.80;;;15.60;99.90;;;15.72;54.27;102025.81;6046073;22;105653;-49
2023/05/02 09:29:36;;;;;;;2.40;1.30;;;15.70;99.90;;;15.69;54.60;102023.25;6095614;23;97745;-52
2023/05/02 09:32:04;;;;;;;2.80;2.00;;;15.60;99.90;;;15.71;53.70;102030.25;6091563;22;98454;-50
2023/05/02 09:34:30;;;;;;;1.90;1.10;;;15.70;99.90;;;15.72;54.97;102039.09;6097199;22;97455;-51
2023/05/02 09:36:57;;;;;;;1.70;1.07;;;15.60;99.90;;;15.74;55.81;102035.44;6092111;23;97543;-46
2023/05/02 09:39:27;;;;;;;3.27;1.50;;;15.60;99.90;;;15.72;55.18;102037.31;6095437;23;97166;-50
2023/05/02 09:41:54;;;;;;;3.07;1.53;;;15.60;99.90;;;15.86;55.84;102043.94;6094519;22;97347;-48
2023/05/02 09:44:22;;;;;;;3.13;1.77;;;15.70;99.90;;;15.75;53.96;102046.97;6094767;23;97125;-51
2023/05/02 09:46:56;;;;;;;4.50;1.63;;;15.60;99.90;;;15.75;54.31;102047.84;6092003;22;96686;-49
2023/05/02 09:49:44;;;;;;;2.17;1.70;;;15.60;99.90;;;15.76;53.01;102054.88;6098615;22;96728;-50
2023/05/02 09:52:16;;;;;;;4.60;2.37;;;15.60;99.90;;;15.72;55.27;102053.28;6069474;23;102192;-43
2023/05/02 09:54:42;;;;;;;2.87;1.90;;;15.50;99.90;;;15.77;53.82;102058.44;6095287;22;97069;-45
2023/05/02 09:57:09;;;;;;;6.57;2.87;;;15.60;99.90;;;15.62;52.84;102062.50;6099664;23;99638;-49
2023/05/02 09:59:35;;;;;;;5.20;2.60;;;15.50;99.90;;;15.72;54.12;102063.91;6100364;22;97137;-45
2023/05/02 10:02:04;;;;;;;5.70;2.10;;;15.60;99.90;;;15.81;55.45;102061.88;6093268;22;97214;-49
2023/05/02 10:04:32;;;;;;;2.07;1.57;;;15.60;99.90;;;15.84;55.28;102056.44;6096382;22;97547;-48
2023/05/02 10:06:59;;;;;;;3.10;2.63;;;15.80;99.90;;;15.80;51.47;102062.78;6066104;22;97451;-51
2023/05/02 10:09:26;;;;;;;1.83;1.47;;;15.80;99.90;;;15.83;55.67;102057.34;6095694;23;97178;-46
2023/05/02 10:11:55;;;;;;;2.10;1.50;;;15.70;99.90;;;15.90;55.41;102061.53;6093419;22;97743;-46
2023/05/02 10:14:24;;;;;;;3.33;1.63;;;15.70;99.90;;;15.89;53.31;102065.97;6097825;22;98395;-42
2023/05/02 10:17:47;;;;;;;2.70;1.60;;;15.80;99.90;;;15.91;53.94;102068.56;6088590;23;97034;-45